createdAt,value
2018-07-25T00:00:01.297Z,7.10
2018-07-25T00:02:28.637Z,6.80
2018-07-25T00:04:55.916Z,6.67
2018-07-25T00:07:23.197Z,6.77
2018-07-25T00:09:50.470Z,6.50
2018-07-25T00:12:17.708Z,7.10
2018-07-25T00:14:44.963Z,6.70
2018-07-25T00:17:12.209Z,7.30
2018-07-25T00:19:39.464Z,6.73
2018-07-25T00:22:06.785Z,7.10
2018-07-25T00:24:34.034Z,6.90
2018-07-25T00:27:01.314Z,6.60
2018-07-25T00:29:28.790Z,6.97
2018-07-25T00:31:56.061Z,6.40
2018-07-25T00:34:23.308Z,6.80
2018-07-25T00:36:50.546Z,6.93
2018-07-25T00:39:17.796Z,7.20
2018-07-25T00:41:45.050Z,7.40
2018-07-25T00:44:12.306Z,7.30
2018-07-25T00:46:39.554Z,6.90
2018-07-25T00:49:06.829Z,7.37
2018-07-25T00:51:34.115Z,7.00
2018-07-25T00:54:01.368Z,7.57
2018-07-25T00:56:28.624Z,7.40
2018-07-25T00:58:56.373Z,7.23
2018-07-25T01:01:23.638Z,7.60
2018-07-25T01:03:50.873Z,7.80
2018-07-25T01:06:18.157Z,7.50
2018-07-25T01:08:45.408Z,8.60
2018-07-25T01:11:12.704Z,7.20
2018-07-25T01:13:39.956Z,7.00
2018-07-25T01:16:07.314Z,7.67
2018-07-25T01:18:34.557Z,7.40
2018-07-25T01:21:01.989Z,7.40
2018-07-25T01:23:29.243Z,6.80
2018-07-25T01:25:56.529Z,7.60
2018-07-25T01:28:23.811Z,7.70
2018-07-25T01:30:51.055Z,7.53
2018-07-25T01:33:18.317Z,6.67
2018-07-25T01:35:45.584Z,6.70
2018-07-25T01:38:12.847Z,6.97
2018-07-25T01:40:40.130Z,6.60
2018-07-25T01:43:07.372Z,6.73
2018-07-25T01:45:34.601Z,7.27
2018-07-25T01:48:01.891Z,7.50
2018-07-25T01:50:29.161Z,7.83
2018-07-25T01:52:56.413Z,8.07
2018-07-25T01:55:23.693Z,8.30
2018-07-25T01:57:50.939Z,8.17
2018-07-25T02:00:18.209Z,8.43
2018-07-25T02:02:45.449Z,8.13
2018-07-25T02:05:12.701Z,8.73
2018-07-25T02:07:39.954Z,7.87
2018-07-25T02:10:07.199Z,8.80
2018-07-25T02:12:34.506Z,8.13
2018-07-25T02:15:01.757Z,7.90
2018-07-25T02:17:28.993Z,9.20
2018-07-25T02:19:56.266Z,8.27
2018-07-25T02:22:23.491Z,8.07
2018-07-25T02:24:50.747Z,7.60
2018-07-25T02:27:18.058Z,8.20
2018-07-25T02:29:45.320Z,8.30
2018-07-25T02:32:12.579Z,8.90
2018-07-25T02:34:39.833Z,7.77
2018-07-25T02:37:07.085Z,8.20
2018-07-25T02:39:34.354Z,7.97
2018-07-25T02:42:01.621Z,8.30
2018-07-25T02:44:28.860Z,9.03
2018-07-25T02:46:56.117Z,8.00
2018-07-25T02:49:23.432Z,8.60
2018-07-25T02:51:50.730Z,9.93
2018-07-25T02:54:17.959Z,8.13
2018-07-25T02:56:45.282Z,8.27
2018-07-25T02:59:12.493Z,7.77
2018-07-25T03:01:39.721Z,8.10
2018-07-25T03:04:07.034Z,7.93
2018-07-25T03:06:34.242Z,8.60
2018-07-25T03:09:01.544Z,8.70
2018-07-25T03:11:28.801Z,7.13
2018-07-25T03:13:56.034Z,8.77
2018-07-25T03:16:23.268Z,8.60
2018-07-25T03:18:50.534Z,8.47
2018-07-25T03:21:17.790Z,7.80
2018-07-25T03:23:45.103Z,8.20
2018-07-25T03:26:12.370Z,7.97
2018-07-25T03:28:39.618Z,8.20
2018-07-25T03:31:06.877Z,8.10
2018-07-25T03:33:34.185Z,7.93
2018-07-25T03:36:02.185Z,8.90
2018-07-25T03:38:29.645Z,7.67
2018-07-25T03:40:56.938Z,8.43
2018-07-25T03:43:24.184Z,7.60
2018-07-25T03:45:51.462Z,8.60
2018-07-25T03:48:18.730Z,8.60
2018-07-25T03:50:46.009Z,8.10
2018-07-25T03:53:13.265Z,9.10
2018-07-25T03:55:40.619Z,8.43
2018-07-25T03:58:07.853Z,9.50
2018-07-25T04:00:35.312Z,8.10
2018-07-25T04:03:02.701Z,8.33
2018-07-25T04:05:30.021Z,8.67
2018-07-25T04:07:57.305Z,8.30
2018-07-25T04:10:24.573Z,9.00
2018-07-25T04:12:52.205Z,8.67
2018-07-25T04:15:19.461Z,8.50
2018-07-25T04:17:48.552Z,8.53
2018-07-25T04:20:16.849Z,9.00
2018-07-25T04:22:44.110Z,8.50
2018-07-25T04:25:11.647Z,8.77
2018-07-25T04:27:41.032Z,10.37
2018-07-25T04:30:09.758Z,9.07
2018-07-25T04:32:37.285Z,8.73
2018-07-25T04:35:04.572Z,9.07
2018-07-25T04:37:31.825Z,8.87
2018-07-25T04:39:59.062Z,8.63
2018-07-25T04:42:26.601Z,9.50
2018-07-25T04:44:53.905Z,8.60
2018-07-25T04:47:21.632Z,8.00
2018-07-25T04:49:48.953Z,9.60
2018-07-25T04:52:16.760Z,8.30
2018-07-25T04:54:44.310Z,8.00
2018-07-25T04:57:11.659Z,9.07
2018-07-25T04:59:38.937Z,8.83
2018-07-25T05:02:06.186Z,8.10
2018-07-25T05:04:33.435Z,8.73
2018-07-25T05:07:01.176Z,9.87
2018-07-25T05:09:28.586Z,8.53
2018-07-25T05:11:55.862Z,8.27
2018-07-25T05:14:23.081Z,7.80
2018-07-25T05:16:50.333Z,7.90
2018-07-25T05:19:17.569Z,8.40
2018-07-25T05:21:44.833Z,8.60
2018-07-25T05:24:12.073Z,8.63
2018-07-25T05:26:39.392Z,8.23
2018-07-25T05:29:06.663Z,7.73
2018-07-25T05:31:33.917Z,7.63
2018-07-25T05:34:01.179Z,7.60
2018-07-25T05:36:28.520Z,8.00
2018-07-25T05:38:55.830Z,8.27
2018-07-25T05:41:23.076Z,8.50
2018-07-25T05:43:50.340Z,7.50
2018-07-25T05:46:17.763Z,8.70
2018-07-25T05:48:45.005Z,7.80
2018-07-25T05:51:12.304Z,7.90
2018-07-25T05:53:39.548Z,8.53
2018-07-25T05:56:06.829Z,8.20
2018-07-25T05:58:34.069Z,7.60
2018-07-25T06:01:02.208Z,7.87
2018-07-25T06:03:29.530Z,7.97
2018-07-25T06:05:56.816Z,8.70
2018-07-25T06:08:24.062Z,7.60
2018-07-25T06:10:51.314Z,7.83
2018-07-25T06:13:18.569Z,7.83
2018-07-25T06:15:45.837Z,7.33
2018-07-25T06:18:13.088Z,7.27
2018-07-25T06:20:40.389Z,8.07
2018-07-25T06:23:07.669Z,7.63
2018-07-25T06:25:35.006Z,8.33
2018-07-25T06:28:02.341Z,8.03
2018-07-25T06:30:29.628Z,7.50
2018-07-25T06:32:56.886Z,9.20
2018-07-25T06:35:24.338Z,8.00
2018-07-25T06:37:51.630Z,8.10
2018-07-25T06:40:18.893Z,8.60
2018-07-25T06:42:46.129Z,8.10
2018-07-25T06:45:13.389Z,7.97
2018-07-25T06:47:40.630Z,8.20
2018-07-25T06:50:12.178Z,7.67
2018-07-25T06:52:39.638Z,7.72
2018-07-25T06:55:06.977Z,8.10
2018-07-25T06:57:34.245Z,8.05
2018-07-25T07:00:01.514Z,8.60
2018-07-25T07:02:28.768Z,8.90
2018-07-25T07:04:56.324Z,7.92
2018-07-25T07:07:23.594Z,11.40
2018-07-25T07:09:50.876Z,9.58
2018-07-25T07:12:18.143Z,8.80
2018-07-25T07:14:45.438Z,8.23
2018-07-25T07:17:12.970Z,8.10
2018-07-25T07:19:40.241Z,7.50
2018-07-25T07:22:07.493Z,7.35
2018-07-25T07:24:34.737Z,7.40
2018-07-25T07:27:01.997Z,7.35
2018-07-25T07:29:29.309Z,8.38
2018-07-25T07:31:56.589Z,8.20
2018-07-25T07:34:23.890Z,7.58
2018-07-25T07:36:51.161Z,7.65
2018-07-25T07:39:18.532Z,8.08
2018-07-25T07:41:45.899Z,8.25
2018-07-25T07:44:13.200Z,7.90
2018-07-25T07:46:40.429Z,7.90
2018-07-25T07:49:07.782Z,7.83
2018-07-25T07:51:35.361Z,8.68
2018-07-25T07:54:02.671Z,7.92
2018-07-25T07:56:31.849Z,7.95
2018-07-25T07:59:01.095Z,7.22
2018-07-25T08:01:30.505Z,8.15
2018-07-25T08:03:59.412Z,8.08
2018-07-25T08:06:26.694Z,8.25
2018-07-25T08:08:53.981Z,7.92
2018-07-25T08:11:21.328Z,7.67
2018-07-25T08:13:50.755Z,7.40
2018-07-25T08:16:19.536Z,7.87
2018-07-25T08:18:47.434Z,8.33
2018-07-25T08:21:14.883Z,7.45
2018-07-25T08:23:43.434Z,8.30
2018-07-25T08:26:12.045Z,7.72
2018-07-25T08:28:41.033Z,8.40
2018-07-25T08:31:10.080Z,8.18
2018-07-25T08:33:38.664Z,7.20
2018-07-25T08:36:06.113Z,7.40
2018-07-25T08:38:34.100Z,7.80
2018-07-25T08:41:02.300Z,7.97
2018-07-25T08:43:30.489Z,6.62
2018-07-25T08:45:59.213Z,7.22
2018-07-25T08:48:26.546Z,7.60
2018-07-25T08:50:53.997Z,7.40
2018-07-25T08:53:21.741Z,7.08
2018-07-25T08:55:49.738Z,6.65
2018-07-25T08:58:16.981Z,6.15
2018-07-25T09:00:44.262Z,6.50
2018-07-25T09:03:11.768Z,6.20
2018-07-25T09:05:39.558Z,5.92
2018-07-25T09:08:06.790Z,5.85
2018-07-25T09:10:34.062Z,6.30
2018-07-25T09:13:01.367Z,6.85
2018-07-25T09:15:28.600Z,6.47
2018-07-25T09:17:55.877Z,6.47
2018-07-25T09:20:23.169Z,6.90
2018-07-25T09:22:50.436Z,7.03
2018-07-25T09:25:17.761Z,6.70
2018-07-25T09:27:45.030Z,6.60
2018-07-25T09:30:12.322Z,6.80
2018-07-25T09:32:39.632Z,6.83
2018-07-25T09:35:06.899Z,6.30
2018-07-25T09:37:34.194Z,6.90
2018-07-25T09:40:01.465Z,6.45
2018-07-25T09:42:28.745Z,6.50
2018-07-25T09:44:56.336Z,6.20
2018-07-25T09:47:23.640Z,6.63
2018-07-25T09:49:50.943Z,6.50
2018-07-25T09:52:18.247Z,7.37
2018-07-25T09:54:45.583Z,6.37
2018-07-25T09:57:12.978Z,6.83
2018-07-25T09:59:40.272Z,6.63
2018-07-25T10:02:07.563Z,7.17
2018-07-25T10:04:34.845Z,6.13
2018-07-25T10:07:02.143Z,6.40
2018-07-25T10:09:29.476Z,6.27
2018-07-25T10:11:56.928Z,7.17
2018-07-25T10:14:24.249Z,5.90
2018-07-25T10:16:52.202Z,6.47
2018-07-25T10:19:19.525Z,6.40
2018-07-25T10:21:46.801Z,6.30
2018-07-25T10:24:16.200Z,6.83
2018-07-25T10:26:46.141Z,6.23
2018-07-25T10:29:15.445Z,6.70
2018-07-25T10:31:44.955Z,6.00
2018-07-25T10:34:13.675Z,7.13
2018-07-25T10:36:42.722Z,6.27
2018-07-25T10:39:12.099Z,5.83
2018-07-25T10:41:39.611Z,6.10
2018-07-25T10:44:07.058Z,6.20
2018-07-25T10:46:34.731Z,7.00
2018-07-25T10:49:03.717Z,7.23
2018-07-25T10:51:33.121Z,6.00
2018-07-25T10:54:01.918Z,5.63
2018-07-25T10:56:29.402Z,5.80
2018-07-25T10:58:56.748Z,5.63
2018-07-25T11:01:25.117Z,6.37
2018-07-25T11:03:54.321Z,7.00
2018-07-25T11:06:23.925Z,6.30
2018-07-25T11:08:53.564Z,5.83
2018-07-25T11:11:22.777Z,5.60
2018-07-25T11:13:50.744Z,6.23
2018-07-25T11:16:18.959Z,6.13
2018-07-25T11:18:46.665Z,5.50
2018-07-25T11:21:15.729Z,6.33
2018-07-25T11:23:43.227Z,6.00
2018-07-25T11:26:11.849Z,6.53
2018-07-25T11:28:39.284Z,5.90
2018-07-25T11:31:06.733Z,5.70
2018-07-25T11:33:33.982Z,6.03
2018-07-25T11:36:01.401Z,5.93
2018-07-25T11:38:29.369Z,6.00
2018-07-25T11:40:57.517Z,5.57
2018-07-25T11:43:25.414Z,5.50
2018-07-25T11:45:52.870Z,5.97
2018-07-25T11:48:20.181Z,5.70
2018-07-25T11:50:47.501Z,5.53
2018-07-25T11:53:15.414Z,5.73
2018-07-25T11:55:42.930Z,5.57
2018-07-25T11:58:10.205Z,6.00
2018-07-25T12:00:37.643Z,5.37
2018-07-25T12:03:05.654Z,6.30
2018-07-25T12:05:33.248Z,5.37
2018-07-25T12:08:00.545Z,5.87
2018-07-25T12:10:29.235Z,6.17
2018-07-25T12:12:56.589Z,5.87
2018-07-25T12:15:23.920Z,6.57
2018-07-25T12:17:51.188Z,6.03
2018-07-25T12:20:18.472Z,5.93
2018-07-25T12:22:45.768Z,7.03
2018-07-25T12:25:13.065Z,6.17
2018-07-25T12:27:40.405Z,6.60
2018-07-25T12:30:08.020Z,6.30
2018-07-25T12:32:35.437Z,6.90
2018-07-25T12:35:02.846Z,6.07
2018-07-25T12:37:30.099Z,6.90
2018-07-25T12:39:57.418Z,6.20
2018-07-25T12:42:24.722Z,5.80
2018-07-25T12:44:52.030Z,6.00
2018-07-25T12:47:19.277Z,6.27
2018-07-25T12:49:46.571Z,6.37
2018-07-25T12:52:13.948Z,6.30
2018-07-25T12:54:41.377Z,6.40
2018-07-25T12:57:08.810Z,6.13
2018-07-25T12:59:36.098Z,6.10
2018-07-25T13:02:03.431Z,5.83
2018-07-25T13:04:30.623Z,6.20
2018-07-25T13:06:57.912Z,5.50
2018-07-25T13:09:25.353Z,5.30
2018-07-25T13:11:52.640Z,5.43
2018-07-25T13:14:19.945Z,5.40
2018-07-25T13:16:47.277Z,5.37
2018-07-25T13:19:15.284Z,5.37
2018-07-25T13:21:42.600Z,5.43
2018-07-25T13:24:10.974Z,6.20
2018-07-25T13:26:39.717Z,5.10
2018-07-25T13:29:07.685Z,5.80
2018-07-25T13:31:35.155Z,6.27
2018-07-25T13:34:02.657Z,5.57
2018-07-25T13:36:32.124Z,5.70
2018-07-25T13:39:01.465Z,6.07
2018-07-25T13:41:30.323Z,5.53
2018-07-25T13:43:58.280Z,5.70
2018-07-25T13:46:25.756Z,5.60
2018-07-25T13:48:53.057Z,6.10
2018-07-25T13:51:20.401Z,5.67
2018-07-25T13:53:47.951Z,5.90
2018-07-25T13:56:15.274Z,5.70
2018-07-25T13:58:42.554Z,5.90
2018-07-25T14:01:09.849Z,5.83
2018-07-25T14:03:37.173Z,6.00
2018-07-25T14:06:04.637Z,6.40
2018-07-25T14:08:32.096Z,6.07
2018-07-25T14:10:59.464Z,5.50
2018-07-25T14:13:26.734Z,5.90
2018-07-25T14:15:54.366Z,5.93
2018-07-25T14:18:21.656Z,5.90
2018-07-25T14:20:50.833Z,6.10
2018-07-25T14:23:19.560Z,5.90
2018-07-25T14:25:47.072Z,6.20
2018-07-25T14:28:14.623Z,6.50
2018-07-25T14:30:42.263Z,5.70
2018-07-25T14:33:11.469Z,5.90
2018-07-25T14:35:40.332Z,5.60
2018-07-25T14:38:08.601Z,6.30
2018-07-25T14:40:36.427Z,6.03
2018-07-25T14:43:03.989Z,6.20
2018-07-25T14:45:32.750Z,6.50
2018-07-25T14:48:00.050Z,6.40
2018-07-25T14:50:27.565Z,6.40
2018-07-25T14:52:54.877Z,6.23
2018-07-25T14:55:22.173Z,5.37
2018-07-25T14:57:49.477Z,6.57
2018-07-25T15:00:17.505Z,5.80
2018-07-25T15:02:44.794Z,6.47
2018-07-25T15:05:12.042Z,6.50
2018-07-25T15:07:39.358Z,6.70
2018-07-25T15:10:06.914Z,6.27
2018-07-25T15:12:39.906Z,6.80
2018-07-25T15:15:07.184Z,6.43
2018-07-25T15:17:34.517Z,6.60
2018-07-25T15:20:01.786Z,6.40
2018-07-25T15:22:29.144Z,6.40
2018-07-25T15:24:56.419Z,6.60
2018-07-25T15:27:23.718Z,6.10
2018-07-25T15:29:51.007Z,6.70
2018-07-25T15:32:18.283Z,6.60
2018-07-25T15:34:45.626Z,6.50
2018-07-25T15:37:12.961Z,6.40
2018-07-25T15:39:40.220Z,6.97
2018-07-25T15:42:07.502Z,6.37
2018-07-25T15:44:34.814Z,6.23
2018-07-25T15:47:02.169Z,7.13
2018-07-25T15:49:30.230Z,6.10
2018-07-25T15:51:57.536Z,7.17
2018-07-25T15:54:24.949Z,7.13
2018-07-25T15:56:52.264Z,6.90
2018-07-25T15:59:19.562Z,7.27
2018-07-25T16:01:48.394Z,7.20
2018-07-25T16:04:15.705Z,7.43
2018-07-25T16:06:42.973Z,6.80
2018-07-25T16:09:11.475Z,7.60
2018-07-25T16:11:39.268Z,7.20
2018-07-25T16:14:06.788Z,7.83
2018-07-25T16:16:34.064Z,6.97
2018-07-25T16:19:01.420Z,7.50
2018-07-25T16:21:28.762Z,7.27
2018-07-25T16:23:56.030Z,8.30
2018-07-25T16:26:23.648Z,7.10
2018-07-25T16:28:50.957Z,6.80
2018-07-25T16:31:18.373Z,7.37
2018-07-25T16:33:45.668Z,7.27
2018-07-25T16:36:13.097Z,7.67
2018-07-25T16:38:40.388Z,7.60
2018-07-25T16:41:07.689Z,6.90
2018-07-25T16:43:35.001Z,7.20
2018-07-25T16:46:02.330Z,7.57
2018-07-25T16:48:29.613Z,7.00
2018-07-25T16:50:57.067Z,6.40
2018-07-25T16:53:24.400Z,6.90
2018-07-25T16:55:51.718Z,7.00
2018-07-25T16:58:19.044Z,6.80
2018-07-25T17:00:46.341Z,7.50
2018-07-25T17:03:13.874Z,7.20
2018-07-25T17:05:41.180Z,6.83
2018-07-25T17:08:08.484Z,7.37
2018-07-25T17:10:35.787Z,6.70
2018-07-25T17:13:03.096Z,6.23
2018-07-25T17:15:30.360Z,5.70
2018-07-25T17:17:57.647Z,6.67
2018-07-25T17:20:25.123Z,6.63
2018-07-25T17:22:52.425Z,6.43
2018-07-25T17:25:19.697Z,6.70
2018-07-25T17:27:47.033Z,6.97
2018-07-25T17:30:14.277Z,6.80
2018-07-25T17:32:41.584Z,6.20
2018-07-25T17:35:08.905Z,6.87
2018-07-25T17:37:36.188Z,6.77
2018-07-25T17:40:03.524Z,7.33
2018-07-25T17:42:30.833Z,6.83
2018-07-25T17:44:58.137Z,7.40
2018-07-25T17:47:25.460Z,7.03
2018-07-25T17:49:53.108Z,7.37
2018-07-25T17:52:20.421Z,6.67
2018-07-25T17:54:47.749Z,7.10
2018-07-25T17:57:15.109Z,7.17
2018-07-25T17:59:42.402Z,7.27
2018-07-25T18:02:09.925Z,7.80
2018-07-25T18:04:37.257Z,8.10
2018-07-25T18:07:04.565Z,6.83
2018-07-25T18:09:31.849Z,7.60
2018-07-25T18:11:59.173Z,7.50
2018-07-25T18:14:26.476Z,7.10
2018-07-25T18:16:53.744Z,7.60
2018-07-25T18:19:21.045Z,7.00
2018-07-25T18:21:48.332Z,7.27
2018-07-25T18:24:15.644Z,7.00
2018-07-25T18:26:42.950Z,7.63
2018-07-25T18:29:10.276Z,7.50
2018-07-25T18:31:37.517Z,8.33
2018-07-25T18:34:04.793Z,7.10
2018-07-25T18:36:32.150Z,7.30
2018-07-25T18:38:59.439Z,7.50
2018-07-25T18:41:26.855Z,6.80
2018-07-25T18:43:54.121Z,7.73
2018-07-25T18:46:21.378Z,7.23
2018-07-25T18:48:48.645Z,7.33
2018-07-25T18:51:15.901Z,7.07
2018-07-25T18:53:43.253Z,7.30
2018-07-25T18:56:10.598Z,8.27
2018-07-25T18:58:37.841Z,5.97
2018-07-25T19:01:05.133Z,5.60
2018-07-25T19:03:32.379Z,5.53
2018-07-25T19:05:59.633Z,6.00
2018-07-25T19:08:26.922Z,6.10
2018-07-25T19:10:54.253Z,5.77
2018-07-25T19:13:27.124Z,6.33
2018-07-25T19:15:54.381Z,6.13
2018-07-25T19:18:21.692Z,6.37
2018-07-25T19:20:48.918Z,6.77
2018-07-25T19:23:16.189Z,5.90
2018-07-25T19:25:43.472Z,7.17
2018-07-25T19:28:10.736Z,6.70
2018-07-25T19:30:37.981Z,7.10
2018-07-25T19:33:05.254Z,7.20
2018-07-25T19:35:32.499Z,7.93
2018-07-25T19:37:59.797Z,6.70
2018-07-25T19:40:27.151Z,6.27
2018-07-25T19:42:54.451Z,7.60
2018-07-25T19:45:21.841Z,6.30
2018-07-25T19:47:49.162Z,6.60
2018-07-25T19:50:16.448Z,6.13
2018-07-25T19:52:43.735Z,6.93
2018-07-25T19:55:11.035Z,6.97
2018-07-25T19:57:38.290Z,5.90
2018-07-25T20:00:05.624Z,6.83
2018-07-25T20:02:32.934Z,6.70
2018-07-25T20:05:00.188Z,6.67
2018-07-25T20:07:27.534Z,6.97
2018-07-25T20:09:54.869Z,6.70
2018-07-25T20:12:22.117Z,7.00
2018-07-25T20:14:55.004Z,7.20
2018-07-25T20:17:22.254Z,7.27
2018-07-25T20:19:49.528Z,7.57
2018-07-25T20:22:16.812Z,7.60
2018-07-25T20:24:44.122Z,8.07
2018-07-25T20:27:11.385Z,7.87
2018-07-25T20:29:38.666Z,7.20
2018-07-25T20:32:05.953Z,7.37
2018-07-25T20:34:33.240Z,7.20
2018-07-25T20:37:00.752Z,7.47
2018-07-25T20:39:28.007Z,7.83
2018-07-25T20:41:55.390Z,8.03
2018-07-25T20:44:22.669Z,7.97
2018-07-25T20:46:49.932Z,6.60
2018-07-25T20:49:17.187Z,6.87
2018-07-25T20:51:44.443Z,6.93
2018-07-25T20:54:11.760Z,7.70
2018-07-25T20:56:39.026Z,7.37
2018-07-25T20:59:06.261Z,7.40
2018-07-25T21:01:33.522Z,6.83
2018-07-25T21:04:00.791Z,7.57
2018-07-25T21:06:28.098Z,6.80
2018-07-25T21:08:55.395Z,6.90
2018-07-25T21:11:22.819Z,6.80
2018-07-25T21:13:50.177Z,6.73
2018-07-25T21:16:17.650Z,5.30
2018-07-25T21:18:44.885Z,7.00
2018-07-25T21:21:12.171Z,6.37
2018-07-25T21:23:39.494Z,6.70
2018-07-25T21:26:06.765Z,7.17
2018-07-25T21:28:34.025Z,6.50
2018-07-25T21:31:01.349Z,6.83
2018-07-25T21:33:28.730Z,7.03
2018-07-25T21:35:55.953Z,6.87
2018-07-25T21:38:23.209Z,7.40
2018-07-25T21:40:50.530Z,8.13
2018-07-25T21:43:17.777Z,7.40
2018-07-25T21:45:45.043Z,7.90
2018-07-25T21:48:12.421Z,8.53
2018-07-25T21:50:39.727Z,7.50
2018-07-25T21:53:06.997Z,7.90
2018-07-25T21:55:34.304Z,7.57
2018-07-25T21:58:01.648Z,8.00
2018-07-25T22:00:28.887Z,7.53
2018-07-25T22:02:56.163Z,6.97
2018-07-25T22:05:23.396Z,7.40
2018-07-25T22:07:50.649Z,6.90
2018-07-25T22:10:17.977Z,6.63
2018-07-25T22:12:45.211Z,7.03
2018-07-25T22:15:12.614Z,7.33
2018-07-25T22:17:39.873Z,6.30
2018-07-25T22:20:07.969Z,6.73
2018-07-25T22:22:35.226Z,7.00
2018-07-25T22:25:02.518Z,7.27
2018-07-25T22:27:29.792Z,7.43
2018-07-25T22:29:57.061Z,7.17
2018-07-25T22:32:24.347Z,7.03
2018-07-25T22:34:51.613Z,6.63
2018-07-25T22:37:18.925Z,6.90
2018-07-25T22:39:46.185Z,6.70
2018-07-25T22:42:13.437Z,7.63
2018-07-25T22:44:40.788Z,8.50
2018-07-25T22:47:08.033Z,6.80
2018-07-25T22:49:35.280Z,7.17
2018-07-25T22:52:02.653Z,6.17
2018-07-25T22:54:30.188Z,6.70
2018-07-25T22:56:57.429Z,6.70
2018-07-25T22:59:24.702Z,7.53
2018-07-25T23:01:52.101Z,6.60
2018-07-25T23:04:19.361Z,7.80
2018-07-25T23:06:46.601Z,6.60
2018-07-25T23:09:13.887Z,7.27
2018-07-25T23:11:41.581Z,6.53
2018-07-25T23:14:08.878Z,7.00
2018-07-25T23:16:36.146Z,7.33
2018-07-25T23:19:03.446Z,8.27
2018-07-25T23:21:30.692Z,6.80
2018-07-25T23:23:57.934Z,6.87
2018-07-25T23:26:25.228Z,6.40
2018-07-25T23:28:52.457Z,7.20
2018-07-25T23:31:19.685Z,8.03
2018-07-25T23:33:46.988Z,6.87
2018-07-25T23:36:14.216Z,6.50
2018-07-25T23:38:41.471Z,6.70
2018-07-25T23:41:08.761Z,7.30
2018-07-25T23:43:36.007Z,6.63
2018-07-25T23:46:03.280Z,7.40
2018-07-25T23:48:30.548Z,7.50
2018-07-25T23:50:57.808Z,7.37
2018-07-25T23:53:25.297Z,6.70
2018-07-25T23:55:52.545Z,6.80
2018-07-25T23:58:19.828Z,6.37
